Time;durP1;ratioP1;P1;durP2;ratioP2;P2;SDS_P1;SDS_P2;PMS_P1;PMS_P2;Temp;Humidity;BMP_temperature;BMP_pressure;BME280_temperature;BME280_humidity;BME280_pressure;Samples;Min_cycle;Max_cycle;Signal;HPM_P1;HPM_P2
2023/04/01 00:01:13;;;;;;;;;;;10.70;99.90;;;;;;6201551;23;19908;-92
2023/04/01 00:03:43;;;;;;;;;;;10.60;99.90;;;;;;6173230;23;19931;-91
2023/04/01 00:06:13;;;;;;;;;;;10.60;99.90;;;;;;6203068;23;19953;-91
2023/04/01 00:08:38;;;;;;;;;;;10.60;99.90;;;;;;6173950;23;19904;-93
2023/04/01 00:11:06;;;;;;;;;;;10.50;99.90;;;;;;6204630;23;19888;-95
2023/04/01 00:13:32;;;;;;;;;;;10.50;99.90;;;;;;6179977;23;19912;-91
2023/04/01 00:15:58;;;;;;;;;;;10.50;99.90;;;;;;6174248;23;19904;-94
2023/04/01 00:18:24;;;;;;;;;;;10.50;99.90;;;;;;6173785;23;19912;-93
2023/04/01 00:21:10;;;;;;;;;;;10.50;99.90;;;;;;6175604;23;19911;-93
2023/04/01 00:23:43;;;;;;;;;;;10.60;99.90;;;;;;6139266;23;20069;-92
2023/04/01 00:26:20;;;;;;;;;;;10.50;99.90;;;;;;6139268;23;19905;-91
2023/04/01 00:28:46;;;;;;;;;;;10.60;99.90;;;;;;6138382;23;19998;-91
2023/04/01 00:31:14;;;;;;;;;;;10.60;99.90;;;;;;6105955;23;19905;-91
2023/04/01 00:33:40;;;;;;;;;;;10.60;99.90;;;;;;6134819;23;19905;-91
2023/04/01 00:36:08;;;;;;;;;;;10.60;99.90;;;;;;6197502;23;19920;-92
2023/04/01 00:38:50;;;;;;;;;;;10.50;99.90;;;;;;6208515;23;19908;-93
2023/04/01 00:41:16;;;;;;;;;;;10.60;99.90;;;;;;6202130;23;19912;-91
2023/04/01 00:44:02;;;;;;;;;;;10.50;99.90;;;;;;6199524;23;19911;-92
2023/04/01 00:46:27;;;;;;;;;;;10.50;99.90;;;;;;6200389;23;19905;-91
2023/04/01 00:48:58;;;;;;;;;;;10.50;99.90;;;;;;6224583;23;19905;-93
2023/04/01 00:51:30;;;;;;;;;;;10.40;99.90;;;;;;6198108;23;19956;-91
2023/04/01 00:53:58;;;;;;;;;;;10.40;99.90;;;;;;6200354;23;19904;-92
2023/04/01 00:56:49;;;;;;;;;;;10.30;99.90;;;;;;6202642;23;19904;-91
2023/04/01 00:59:21;;;;;;;;;;;10.40;99.90;;;;;;6199919;23;19908;-93
2023/04/01 01:01:46;;;;;;;;;;;10.30;99.90;;;;;;6202090;23;19909;-92
2023/04/01 01:04:28;;;;;;;;;;;10.20;99.90;;;;;;6226722;23;19944;-92
2023/04/01 01:06:58;;;;;;;;;;;10.20;99.90;;;;;;6201134;23;19956;-91
2023/04/01 01:09:40;;;;;;;;;;;10.30;99.90;;;;;;6201476;23;19908;-92
2023/04/01 01:12:21;;;;;;;;;;;10.30;99.90;;;;;;6202168;23;19905;-92
2023/04/01 01:15:09;;;;;;;;;;;10.80;99.90;;;;;;6202850;23;19927;-92
2023/04/01 01:17:44;;;;;;;;;;;10.30;99.90;;;;;;6199641;23;19912;-91
2023/04/01 01:20:16;;;;;;;;;;;10.30;99.90;;;;;;6200298;23;19905;-90
2023/04/01 01:22:54;;;;;;;;;;;10.30;99.90;;;;;;6224385;23;19911;-92
2023/04/01 01:25:46;;;;;;;;;;;10.20;99.90;;;;;;6201252;23;19904;-91
2023/04/01 01:28:28;;;;;;;;;;;10.20;99.90;;;;;;6192078;23;19906;-95
2023/04/01 01:31:15;;;;;;;;;;;10.30;99.90;;;;;;6206346;23;19952;-93
2023/04/01 01:34:00;;;;;;;;;;;10.20;99.90;;;;;;6203033;23;20329;-92
2023/04/01 01:36:33;;;;;;;;;;;10.20;99.90;;;;;;6202606;23;19912;-91
2023/04/01 01:39:04;;;;;;;;;;;10.30;99.90;;;;;;6206181;23;19909;-92
2023/04/01 01:41:33;;;;;;;;;;;10.20;99.90;;;;;;6204239;23;19940;-93
2023/04/01 01:44:20;;;;;;;;;;;10.20;99.90;;;;;;6204563;23;19888;-91
2023/04/01 01:46:49;;;;;;;;;;;10.30;99.90;;;;;;6203227;23;19972;-92
2023/04/01 01:49:15;;;;;;;;;;;10.30;99.90;;;;;;6203741;23;19904;-92
2023/04/01 01:51:42;;;;;;;;;;;10.30;99.90;;;;;;6198434;23;19904;-91
2023/04/01 01:54:13;;;;;;;;;;;10.30;99.90;;;;;;6225321;23;20362;-92
2023/04/01 01:56:44;;;;;;;;;;;10.30;99.90;;;;;;6201517;23;19908;-92
2023/04/01 01:59:10;;;;;;;;;;;10.30;99.90;;;;;;6202617;23;19905;-93
2023/04/01 02:01:51;;;;;;;;;;;10.30;99.90;;;;;;6203743;23;19908;-93
2023/04/01 02:04:40;;;;;;;;;;;10.40;99.90;;;;;;6204279;23;19928;-91
2023/04/01 02:07:12;;;;;;;;;;;10.30;99.90;;;;;;6203197;23;19904;-92
2023/04/01 02:09:46;;;;;;;;;;;10.40;99.90;;;;;;6202693;23;20321;-92
2023/04/01 02:12:13;;;;;;;;;;;10.30;99.90;;;;;;6202187;23;19931;-90
2023/04/01 02:14:47;;;;;;;;;;;10.40;99.90;;;;;;6202122;23;19909;-91
2023/04/01 02:17:20;;;;;;;;;;;10.40;99.90;;;;;;6202306;23;19908;-93
2023/04/01 02:19:51;;;;;;;;;;;10.40;99.90;;;;;;6202111;23;19932;-92
2023/04/01 02:22:20;;;;;;;;;;;10.40;99.90;;;;;;6201734;23;19908;-92
2023/04/01 02:24:46;;;;;;;;;;;10.40;99.90;;;;;;6228059;23;19951;-92
2023/04/01 02:27:12;;;;;;;;;;;10.20;99.90;;;;;;6227552;23;19908;-93
2023/04/01 02:29:38;;;;;;;;;;;10.30;99.90;;;;;;6203231;23;19948;-91
2023/04/01 02:32:12;;;;;;;;;;;10.30;99.90;;;;;;6229106;23;19904;-91
2023/04/01 02:34:38;;;;;;;;;;;10.20;99.90;;;;;;6201464;23;19908;-93
2023/04/01 02:37:04;;;;;;;;;;;10.10;99.90;;;;;;6203694;23;19908;-91
2023/04/01 02:39:34;;;;;;;;;;;10.20;99.90;;;;;;6203017;23;19943;-94
2023/04/01 02:42:25;;;;;;;;;;;10.60;99.90;;;;;;6226254;23;19960;-92
2023/04/01 02:44:55;;;;;;;;;;;10.30;99.90;;;;;;6175924;23;19908;-91
2023/04/01 02:47:21;;;;;;;;;;;10.30;99.90;;;;;;6177438;23;19904;-91
2023/04/01 02:49:48;;;;;;;;;;;10.20;99.90;;;;;;6198925;23;19931;-92
2023/04/01 02:52:14;;;;;;;;;;;10.20;99.90;;;;;;6176855;23;19911;-94
2023/04/01 02:54:40;;;;;;;;;;;10.20;99.90;;;;;;6201504;23;19904;-91
2023/04/01 02:57:13;;;;;;;;;;;10.20;99.90;;;;;;6202789;23;19919;-92
2023/04/01 02:59:41;;;;;;;;;;;10.20;99.90;;;;;;6175940;23;19904;-92
2023/04/01 03:02:07;;;;;;;;;;;10.10;99.90;;;;;;6177529;23;19919;-92
2023/04/01 03:04:33;;;;;;;;;;;10.20;99.90;;;;;;6171971;23;19904;-91
2023/04/01 03:06:59;;;;;;;;;;;10.20;99.90;;;;;;6200810;23;19900;-90
2023/04/01 03:09:26;;;;;;;;;;;10.20;99.90;;;;;;6185032;23;19908;-95
2023/04/01 03:11:52;;;;;;;;;;;10.10;99.90;;;;;;6202727;23;19905;-92
2023/04/01 03:14:17;;;;;;;;;;;10.20;99.90;;;;;;6203050;23;19904;-93
2023/04/01 03:16:43;;;;;;;;;;;10.10;99.90;;;;;;6224522;23;19900;-90
2023/04/01 03:19:08;;;;;;;;;;;10.10;99.90;;;;;;6205323;23;19936;-92
2023/04/01 03:21:34;;;;;;;;;;;10.10;99.90;;;;;;6229829;23;20026;-92
2023/04/01 03:24:03;;;;;;;;;;;10.10;99.90;;;;;;6227632;23;19928;-94
2023/04/01 03:26:29;;;;;;;;;;;10.20;99.90;;;;;;6225001;23;19979;-91
2023/04/01 03:28:55;;;;;;;;;;;10.00;99.90;;;;;;6227355;23;20333;-92
2023/04/01 03:31:36;;;;;;;;;;;10.00;99.90;;;;;;6204596;23;19908;-91
2023/04/01 03:34:02;;;;;;;;;;;10.00;99.90;;;;;;6229418;23;19905;-92
2023/04/01 03:36:27;;;;;;;;;;;10.00;99.90;;;;;;6230038;23;19913;-92
2023/04/01 03:38:53;;;;;;;;;;;9.90;99.90;;;;;;6228591;23;19910;-93
2023/04/01 03:41:18;;;;;;;;;;;9.80;99.90;;;;;;6221334;23;19955;-93
2023/04/01 03:43:44;;;;;;;;;;;9.70;99.90;;;;;;6226763;23;19892;-92
2023/04/01 03:46:17;;;;;;;;;;;9.80;99.90;;;;;;6196182;23;19904;-91
2023/04/01 03:48:42;;;;;;;;;;;9.80;99.90;;;;;;6197579;23;19932;-94
2023/04/01 03:51:08;;;;;;;;;;;9.80;99.90;;;;;;6222736;23;19899;-91
2023/04/01 03:53:34;;;;;;;;;;;9.90;99.90;;;;;;6198233;23;19915;-91
2023/04/01 03:56:05;;;;;;;;;;;9.80;99.90;;;;;;6229067;23;19927;-92
2023/04/01 03:58:31;;;;;;;;;;;9.90;99.90;;;;;;6201705;23;20012;-93
2023/04/01 04:00:56;;;;;;;;;;;9.90;99.90;;;;;;6205663;23;19934;-93
2023/04/01 04:03:29;;;;;;;;;;;9.90;99.90;;;;;;6205524;23;19947;-93
2023/04/01 04:05:56;;;;;;;;;;;9.90;99.90;;;;;;6204517;23;19904;-91
2023/04/01 04:08:25;;;;;;;;;;;9.90;99.90;;;;;;6202068;23;19896;-93
2023/04/01 04:10:55;;;;;;;;;;;9.90;99.90;;;;;;6197148;23;19927;-91
2023/04/01 04:13:36;;;;;;;;;;;9.90;99.90;;;;;;6204671;23;19904;-91
2023/04/01 04:16:02;;;;;;;;;;;9.90;99.90;;;;;;6196703;23;19919;-93
2023/04/01 04:18:28;;;;;;;;;;;10.00;99.90;;;;;;6198707;23;19966;-92
2023/04/01 04:20:54;;;;;;;;;;;9.90;99.90;;;;;;6197808;23;19904;-95
2023/04/01 04:23:20;;;;;;;;;;;10.00;99.90;;;;;;6221668;23;19911;-92
2023/04/01 04:25:54;;;;;;;;;;;10.00;99.90;;;;;;6194048;23;19908;-93
2023/04/01 04:28:20;;;;;;;;;;;11.10;99.90;;;;;;6222052;23;19983;-91
2023/04/01 04:30:46;;;;;;;;;;;10.00;99.90;;;;;;6221982;23;19913;-92
2023/04/01 04:33:12;;;;;;;;;;;10.00;99.90;;;;;;6204194;23;19910;-92
2023/04/01 04:35:37;;;;;;;;;;;10.10;99.90;;;;;;6230486;23;19912;-89
2023/04/01 04:38:03;;;;;;;;;;;10.00;99.90;;;;;;6231780;23;19915;-93
2023/04/01 04:40:32;;;;;;;;;;;10.00;99.90;;;;;;6211062;23;19905;-91
2023/04/01 04:42:57;;;;;;;;;;;9.90;99.90;;;;;;6206433;23;19908;-92
2023/04/01 04:45:26;;;;;;;;;;;9.90;99.90;;;;;;6229490;23;19905;-91
2023/04/01 04:47:53;;;;;;;;;;;9.90;99.90;;;;;;6224795;23;19904;-91
2023/04/01 04:50:21;;;;;;;;;;;9.90;99.90;;;;;;6205534;23;19915;-93
2023/04/01 04:52:47;;;;;;;;;;;10.10;99.90;;;;;;6211725;23;19915;-90
2023/04/01 04:55:12;;;;;;;;;;;10.00;99.90;;;;;;6190130;23;19908;-89
2023/04/01 04:57:38;;;;;;;;;;;10.00;99.90;;;;;;6219215;23;19913;-91
2023/04/01 05:00:04;;;;;;;;;;;9.90;99.90;;;;;;6211015;23;19905;-91
2023/04/01 05:02:29;;;;;;;;;;;9.90;99.90;;;;;;6185868;23;19931;-91
2023/04/01 05:04:55;;;;;;;;;;;9.80;99.90;;;;;;6210727;23;20396;-90
2023/04/01 05:07:20;;;;;;;;;;;9.80;99.90;;;;;;6211556;23;20326;-92
2023/04/01 05:09:46;;;;;;;;;;;9.80;99.90;;;;;;6208870;23;19912;-92
2023/04/01 05:12:12;;;;;;;;;;;9.70;99.90;;;;;;6192354;23;19932;-92
2023/04/01 05:14:40;;;;;;;;;;;9.70;99.90;;;;;;6214659;23;19904;-92
2023/04/01 05:17:08;;;;;;;;;;;9.60;99.90;;;;;;6195144;23;19915;-91
2023/04/01 05:19:34;;;;;;;;;;;9.60;99.90;;;;;;6218604;23;19893;-93
2023/04/01 05:21:59;;;;;;;;;;;9.60;99.90;;;;;;6214644;23;19904;-91
2023/04/01 05:24:25;;;;;;;;;;;9.60;99.90;;;;;;6217537;23;19948;-91
2023/04/01 05:26:50;;;;;;;;;;;9.60;99.90;;;;;;6193744;23;19928;-91
2023/04/01 05:29:16;;;;;;;;;;;9.60;99.90;;;;;;6186670;23;19905;-92
2023/04/01 05:31:41;;;;;;;;;;;9.60;99.90;;;;;;6186042;23;19912;-92
2023/04/01 05:34:07;;;;;;;;;;;9.60;99.90;;;;;;6206854;23;19913;-90
2023/04/01 05:36:34;;;;;;;;;;;9.50;99.90;;;;;;6182365;23;19912;-91
2023/04/01 05:38:59;;;;;;;;;;;9.50;99.90;;;;;;6213007;23;19892;-94
2023/04/01 05:41:25;;;;;;;;;;;9.50;99.90;;;;;;6186591;23;19905;-90
2023/04/01 05:43:50;;;;;;;;;;;9.50;99.90;;;;;;6208365;23;19958;-92
2023/04/01 05:46:21;;;;;;;;;;;9.40;99.90;;;;;;6193915;23;19927;-94
2023/04/01 05:48:47;;;;;;;;;;;9.40;99.90;;;;;;6197791;23;19908;-91
2023/04/01 05:51:15;;;;;;;;;;;9.30;99.90;;;;;;6200610;23;19915;-91
2023/04/01 05:53:56;;;;;;;;;;;9.40;99.90;;;;;;6200077;23;19932;-89
2023/04/01 05:56:37;;;;;;;;;;;9.30;99.90;;;;;;6198156;23;20368;-89
2023/04/01 05:59:06;;;;;;;;;;;9.20;99.90;;;;;;6204841;23;19933;-91
2023/04/01 06:01:31;;;;;;;;;;;9.20;99.90;;;;;;6200431;23;19905;-92
2023/04/01 06:03:57;;;;;;;;;;;9.20;99.90;;;;;;6200424;23;19909;-89
2023/04/01 06:06:31;;;;;;;;;;;9.20;99.90;;;;;;6226802;23;19889;-91
2023/04/01 06:09:13;;;;;;;;;;;9.20;99.90;;;;;;6197738;23;20360;-90
2023/04/01 06:11:50;;;;;;;;;;;9.20;99.90;;;;;;6201314;23;20343;-89
2023/04/01 06:14:34;;;;;;;;;;;9.30;99.90;;;;;;6226060;23;19924;-91
2023/04/01 06:17:19;;;;;;;;;;;9.80;99.90;;;;;;6204446;23;19908;-90
2023/04/01 06:19:57;;;;;;;;;;;9.20;99.90;;;;;;6202295;23;19959;-91
2023/04/01 06:22:32;;;;;;;;;;;9.40;99.90;;;;;;6228001;23;19912;-90
2023/04/01 06:25:05;;;;;;;;;;;9.40;99.90;;;;;;6223303;23;19908;-93
2023/04/01 06:27:37;;;;;;;;;;;9.40;99.90;;;;;;6201595;23;19915;-90
2023/04/01 06:30:25;;;;;;;;;;;9.40;99.90;;;;;;6220483;23;19951;-92
2023/04/01 06:33:09;;;;;;;;;;;9.90;99.90;;;;;;6219273;23;19904;-93
2023/04/01 06:36:01;;;;;;;;;;;9.50;99.90;;;;;;6220263;23;19999;-90
2023/04/01 06:38:36;;;;;;;;;;;9.50;99.90;;;;;;6188930;23;20262;-90
2023/04/01 06:41:13;;;;;;;;;;;9.60;99.90;;;;;;6187384;23;19987;-95
2023/04/01 06:44:05;;;;;;;;;;;9.70;99.90;;;;;;6173536;23;19935;-93
2023/04/01 06:46:54;;;;;;;;;;;9.70;99.90;;;;;;6182388;23;19911;-92
2023/04/01 06:49:38;;;;;;;;;;;9.80;99.90;;;;;;6158815;23;19912;-92
2023/04/01 06:52:16;;;;;;;;;;;9.80;99.90;;;;;;6183727;23;19905;-91
2023/04/01 06:54:44;;;;;;;;;;;9.90;99.90;;;;;;6180458;23;19912;-95
2023/04/01 06:57:20;;;;;;;;;;;9.90;99.90;;;;;;6180952;23;19913;-93
2023/04/01 06:59:47;;;;;;;;;;;9.90;99.90;;;;;;6205761;23;20322;-92
2023/04/01 07:02:19;;;;;;;;;;;10.00;99.90;;;;;;6182731;23;19919;-92
2023/04/01 07:04:46;;;;;;;;;;;10.00;99.90;;;;;;6185590;23;19905;-93
2023/04/01 07:07:24;;;;;;;;;;;9.90;99.90;;;;;;6183266;23;20245;-91
2023/04/01 07:09:52;;;;;;;;;;;10.00;99.90;;;;;;6207170;23;19975;-92
2023/04/01 07:12:25;;;;;;;;;;;9.90;99.90;;;;;;6182079;23;19908;-93
2023/04/01 07:14:52;;;;;;;;;;;10.00;99.90;;;;;;6182856;23;19904;-93
2023/04/01 07:17:23;;;;;;;;;;;10.00;99.90;;;;;;6182840;23;20340;-92
2023/04/01 07:19:52;;;;;;;;;;;10.00;99.90;;;;;;6181508;23;19905;-91
2023/04/01 07:22:44;;;;;;;;;;;10.10;99.90;;;;;;6181455;23;20349;-92
2023/04/01 07:25:14;;;;;;;;;;;10.30;99.90;;;;;;6183401;23;19939;-93
2023/04/01 07:27:41;;;;;;;;;;;10.30;99.90;;;;;;6192673;23;19905;-92
2023/04/01 07:30:19;;;;;;;;;;;10.30;99.90;;;;;;6189499;23;19904;-91
2023/04/01 07:32:48;;;;;;;;;;;10.40;99.90;;;;;;6186718;23;19912;-92
2023/04/01 07:35:15;;;;;;;;;;;10.40;99.90;;;;;;6211821;23;19912;-91
2023/04/01 07:38:01;;;;;;;;;;;10.40;99.90;;;;;;6208034;23;19916;-93
2023/04/01 07:40:29;;;;;;;;;;;10.50;99.90;;;;;;6183774;23;19911;-90
2023/04/01 07:43:01;;;;;;;;;;;10.60;99.90;;;;;;6205749;23;20245;-90
2023/04/01 07:45:42;;;;;;;;;;;10.70;99.90;;;;;;6181075;23;19904;-91
2023/04/01 07:48:18;;;;;;;;;;;10.80;99.90;;;;;;6205056;23;20276;-94
2023/04/01 07:50:53;;;;;;;;;;;10.90;99.90;;;;;;6204411;23;19904;-93
2023/04/01 07:53:41;;;;;;;;;;;11.10;99.90;;;;;;6183446;23;20344;-93
2023/04/01 07:56:14;;;;;;;;;;;11.20;99.90;;;;;;6153358;23;19905;-92
2023/04/01 07:58:45;;;;;;;;;;;11.10;99.90;;;;;;6206105;23;19947;-90
2023/04/01 08:01:25;;;;;;;;;;;11.10;99.90;;;;;;6216651;23;19911;-90
2023/04/01 08:03:59;;;;;;;;;;;11.20;99.90;;;;;;6196811;23;19944;-91
2023/04/01 08:06:25;;;;;;;;;;;11.30;99.90;;;;;;6192595;23;19904;-92
2023/04/01 08:08:50;;;;;;;;;;;11.30;99.90;;;;;;6209583;23;19944;-90
2023/04/01 08:11:22;;;;;;;;;;;11.30;99.90;;;;;;6190327;23;19905;-92
2023/04/01 08:14:10;;;;;;;;;;;11.40;99.90;;;;;;6209587;23;19915;-91
2023/04/01 08:16:41;;;;;;;;;;;11.50;99.90;;;;;;6182801;23;19974;-93
2023/04/01 08:19:33;;;;;;;;;;;11.60;99.90;;;;;;6182354;23;20003;-93
2023/04/01 08:22:04;;;;;;;;;;;11.60;99.90;;;;;;6187459;23;20278;-92
2023/04/01 08:24:36;;;;;;;;;;;11.60;99.90;;;;;;6187967;23;19904;-92
2023/04/01 08:27:06;;;;;;;;;;;11.70;99.90;;;;;;6192577;23;19904;-91
2023/04/01 08:29:31;;;;;;;;;;;11.70;99.90;;;;;;6190726;23;19909;-93
2023/04/01 08:32:00;;;;;;;;;;;11.80;99.90;;;;;;6191970;23;20336;-94
2023/04/01 08:34:45;;;;;;;;;;;11.90;99.90;;;;;;6193319;23;19905;-92
2023/04/01 08:37:14;;;;;;;;;;;11.90;99.90;;;;;;6189838;23;19915;-93
2023/04/01 08:39:40;;;;;;;;;;;11.90;99.90;;;;;;6190569;23;20352;-93
2023/04/01 08:42:24;;;;;;;;;;;11.80;99.90;;;;;;6191294;23;19904;-91
2023/04/01 08:45:00;;;;;;;;;;;12.70;99.90;;;;;;6214948;23;20253;-92
2023/04/01 08:47:25;;;;;;;;;;;11.80;99.90;;;;;;6182858;23;19904;-92
2023/04/01 08:50:10;;;;;;;;;;;11.80;99.90;;;;;;6208963;23;19904;-92
2023/04/01 08:52:36;;;;;;;;;;;11.90;99.90;;;;;;6215351;23;19905;-91
2023/04/01 08:55:21;;;;;;;;;;;12.00;99.90;;;;;;6189427;23;19912;-93
2023/04/01 08:57:55;;;;;;;;;;;12.20;99.90;;;;;;6192539;23;19958;-91
2023/04/01 09:00:40;;;;;;;;;;;12.30;99.90;;;;;;6184354;23;19904;-93
2023/04/01 09:03:24;;;;;;;;;;;12.40;99.90;;;;;;6183892;23;19904;-91
2023/04/01 09:06:08;;;;;;;;;;;12.40;99.90;;;;;;6192706;23;19911;-93
2023/04/01 09:08:59;;;;;;;;;;;12.30;99.90;;;;;;6189207;23;19904;-93
2023/04/01 09:11:43;;;;;;;;;;;12.40;99.90;;;;;;6188576;23;19926;-90
2023/04/01 09:14:16;;;;;;;;;;;12.40;99.90;;;;;;6191381;23;19904;-95
2023/04/01 09:16:41;;;;;;;;;;;12.40;99.90;;;;;;6213907;23;19908;-92
2023/04/01 09:19:19;;;;;;;;;;;12.40;99.90;;;;;;6214803;23;19904;-91
2023/04/01 09:22:04;;;;;;;;;;;12.50;99.90;;;;;;6190400;23;20322;-92
2023/04/01 09:25:05;;;;;;;;;;;12.50;99.90;;;;;;6185044;23;19911;-91
2023/04/01 09:27:45;;;;;;;;;;;12.30;99.90;;;;;;6128642;23;19911;-92
2023/04/01 09:30:20;;;;;;;;;;;12.10;99.90;;;;;;6181560;23;20016;-93
2023/04/01 09:32:45;;;;;;;;;;;12.10;99.90;;;;;;6208283;23;20192;-91
2023/04/01 09:35:30;;;;;;;;;;;12.00;99.90;;;;;;6205224;23;19920;-92
2023/04/01 09:38:18;;;;;;;;;;;12.30;99.90;;;;;;6204765;23;19920;-93
2023/04/01 09:41:07;;;;;;;;;;;12.20;99.90;;;;;;6185015;23;20245;-91
2023/04/01 09:43:51;;;;;;;;;;;12.20;99.90;;;;;;6180501;23;19904;-92
2023/04/01 09:46:34;;;;;;;;;;;12.10;99.90;;;;;;6179388;23;20152;-88
2023/04/01 09:49:00;;;;;;;;;;;12.10;99.90;;;;;;6182196;23;19959;-90
2023/04/01 09:51:35;;;;;;;;;;;12.30;99.90;;;;;;6206757;23;19908;-92
2023/04/01 09:54:00;;;;;;;;;;;12.40;99.90;;;;;;6204346;23;19912;-91
2023/04/01 09:56:44;;;;;;;;;;;12.60;99.90;;;;;;6182250;23;19936;-91
2023/04/01 09:59:28;;;;;;;;;;;12.80;99.90;;;;;;6182667;23;19960;-93
2023/04/01 10:04:58;;;;;;;;;;;12.40;99.90;;;;;;6182824;23;19908;-91
2023/04/01 10:07:24;;;;;;;;;;;12.10;99.90;;;;;;6207381;23;19946;-92
2023/04/01 10:10:05;;;;;;;;;;;12.00;99.90;;;;;;6207400;23;19924;-92
2023/04/01 10:12:53;;;;;;;;;;;13.70;99.90;;;;;;6208990;23;19905;-93
2023/04/01 10:15:29;;;;;;;;;;;12.20;99.90;;;;;;6179849;23;19908;-92
2023/04/01 10:18:14;;;;;;;;;;;12.40;99.90;;;;;;6206793;23;19912;-93
2023/04/01 10:20:55;;;;;;;;;;;12.40;99.90;;;;;;6212678;23;19904;-94
2023/04/01 10:23:26;;;;;;;;;;;12.40;99.90;;;;;;6188410;23;19927;-92
2023/04/01 10:26:07;;;;;;;;;;;12.40;99.90;;;;;;6188065;23;19908;-92
2023/04/01 10:28:36;;;;;;;;;;;12.40;99.90;;;;;;6184962;23;19912;-91
2023/04/01 10:31:20;;;;;;;;;;;12.50;99.90;;;;;;6207069;23;19905;-91
2023/04/01 10:33:53;;;;;;;;;;;12.60;99.90;;;;;;6186648;23;19911;-93
2023/04/01 10:36:45;;;;;;;;;;;12.60;99.90;;;;;;6189644;23;20554;-95
2023/04/01 10:39:13;;;;;;;;;;;12.50;99.90;;;;;;6213618;23;19918;-94
2023/04/01 10:41:58;;;;;;;;;;;12.30;99.90;;;;;;6214834;23;19904;-92
2023/04/01 10:44:36;;;;;;;;;;;12.30;99.90;;;;;;6212688;23;19904;-93
2023/04/01 10:47:02;;;;;;;;;;;12.50;99.90;;;;;;6213098;23;19888;-91
2023/04/01 10:49:34;;;;;;;;;;;12.50;99.90;;;;;;6211158;23;19908;-94
2023/04/01 10:52:31;;;;;;;;;;;12.40;99.90;;;;;;6216519;23;19904;-94
2023/04/01 10:55:05;;;;;;;;;;;12.30;99.90;;;;;;6218684;23;19904;-95
2023/04/01 10:57:56;;;;;;;;;;;12.70;99.90;;;;;;6192638;23;19928;-92
2023/04/01 11:00:48;;;;;;;;;;;13.00;99.90;;;;;;6193050;23;19991;-94
2023/04/01 11:03:32;;;;;;;;;;;12.90;99.90;;;;;;6077154;23;19932;-94
2023/04/01 11:06:12;;;;;;;;;;;12.90;99.90;;;;;;6098705;23;19917;-92
2023/04/01 11:08:38;;;;;;;;;;;13.00;99.90;;;;;;6146300;23;19908;-92
2023/04/01 11:11:11;;;;;;;;;;;13.20;99.90;;;;;;6184767;23;19991;-93
2023/04/01 11:14:04;;;;;;;;;;;13.40;99.90;;;;;;6184025;23;19947;-91
2023/04/01 11:16:41;;;;;;;;;;;13.60;99.90;;;;;;6193286;23;19911;-93
2023/04/01 11:19:29;;;;;;;;;;;13.50;99.90;;;;;;6186021;23;20287;-93
2023/04/01 11:22:15;;;;;;;;;;;13.00;99.90;;;;;;6184085;23;19912;-94
2023/04/01 11:25:09;;;;;;;;;;;;;;;;;;;;;
2023/04/01 11:28:05;;;;;;;;;;;12.30;99.90;;;;;;6184411;23;20310;-95
2023/04/01 11:31:01;;;;;;;;;;;12.00;99.90;;;;;;6190554;23;19951;-94
2023/04/01 11:34:01;;;;;;;;;;;;;;;;;;;;;
2023/04/01 11:36:59;;;;;;;;;;;12.20;99.90;;;;;;6188748;23;19930;-94
2023/04/01 11:39:41;;;;;;;;;;;12.40;99.90;;;;;;6077157;23;19905;-94
2023/04/01 11:42:25;;;;;;;;;;;12.80;99.90;;;;;;6081669;23;19928;-94
2023/04/01 11:44:59;;;;;;;;;;;12.90;99.90;;;;;;6157124;23;19948;-94
2023/04/01 11:56:33;;;;;;;;;;;12.80;99.90;;;;;;6185872;22;19924;-94
2023/04/01 12:09:51;;;;;;;;;;;13.40;99.90;;;;;;6193224;23;19943;-93
2023/04/01 12:12:40;;;;;;;;;;;13.20;99.90;;;;;;6190607;23;19927;-93
2023/04/01 12:15:28;;;;;;;;;;;13.30;99.90;;;;;;6191420;23;19958;-95
2023/04/01 12:18:09;;;;;;;;;;;13.10;99.90;;;;;;6190396;23;20220;-92
2023/04/01 12:20:45;;;;;;;;;;;;;;;;;;6188692;23;19912;-93
2023/04/01 12:23:42;;;;;;;;;;;;;;;;;;;;;
2023/04/01 12:32:15;;;;;;;;;;;13.00;99.90;;;;;;6122014;22;19917;-93
2023/04/01 12:34:57;;;;;;;;;;;13.00;99.90;;;;;;6240401;23;20368;-94
2023/04/01 12:37:41;;;;;;;;;;;12.80;99.90;;;;;;6235460;23;19923;-93
2023/04/01 12:40:30;;;;;;;;;;;12.30;99.90;;;;;;6214699;23;19904;-94
2023/04/01 12:42:59;;;;;;;;;;;12.00;99.90;;;;;;6208546;23;19916;-93
2023/04/01 12:45:47;;;;;;;;;;;12.00;99.90;;;;;;6212171;23;19908;-92
2023/04/01 12:48:13;;;;;;;;;;;12.00;99.90;;;;;;6235839;23;19904;-93
2023/04/01 12:50:46;;;;;;;;;;;12.00;99.90;;;;;;6234741;23;19904;-92
2023/04/01 12:53:18;;;;;;;;;;;11.60;99.90;;;;;;6210732;23;19939;-95
2023/04/01 14:04:17;;;;;;;;;;;;;;;;;;6145285;22;19920;-93
2023/04/01 14:10:16;;;;;;;;;;;;;;;;;;;;;
2023/04/01 14:45:10;;;;;;;;;;;12.60;99.90;;;;;;6205820;22;19947;-94
2023/04/01 14:47:56;;;;;;;;;;;12.60;99.90;;;;;;6201060;23;19919;-94
2023/04/01 14:50:45;;;;;;;;;;;;;;;;;;;;;
2023/04/01 15:01:50;;;;;;;;;;;13.60;99.90;;;;;;6181425;22;19921;-94
2023/04/01 15:04:16;;;;;;;;;;;;;;;;;;6197461;23;19909;-94
2023/04/01 15:06:48;;;;;;;;;;;14.00;99.90;;;;;;6191351;23;19908;-94
2023/04/01 15:12:00;;;;;;;;;;;14.00;99.90;;;;;;6232740;23;19920;-92
2023/04/01 15:14:42;;;;;;;;;;;;;;;;;;;;;
2023/04/01 15:17:27;;;;;;;;;;;13.50;99.90;;;;;;6236565;23;19908;-92
2023/04/01 15:20:11;;;;;;;;;;;13.60;99.90;;;;;;6231372;23;19970;-92
2023/04/01 15:23:09;;;;;;;;;;;13.60;99.90;;;;;;6231197;23;19904;-92
2023/04/01 15:25:55;;;;;;;;;;;13.70;99.90;;;;;;6174052;23;19904;-92
2023/04/01 15:28:53;;;;;;;;;;;13.70;99.90;;;;;;6202234;23;19904;-94
2023/04/01 15:31:20;;;;;;;;;;;;;;;;;;6228852;23;19956;-94
2023/04/01 15:34:03;;;;;;;;;;;13.70;99.90;;;;;;6212860;23;19978;-93
2023/04/01 15:36:36;;;;;;;;;;;13.80;99.90;;;;;;6213904;23;19912;-91
2023/04/01 15:39:13;;;;;;;;;;;14.00;99.90;;;;;;6212098;23;19916;-90
2023/04/01 15:41:47;;;;;;;;;;;14.20;99.90;;;;;;6211668;23;19907;-96
2023/04/01 15:44:45;;;;;;;;;;;14.30;99.90;;;;;;6212637;23;19904;-91
2023/04/01 15:47:34;;;;;;;;;;;14.30;99.90;;;;;;6155014;23;19950;-92
2023/04/01 15:50:19;;;;;;;;;;;14.20;99.90;;;;;;6231453;23;19904;-91
2023/04/01 15:52:52;;;;;;;;;;;13.90;99.90;;;;;;6242038;23;19894;-91
2023/04/01 15:55:23;;;;;;;;;;;13.80;99.90;;;;;;6208938;23;19904;-93
2023/04/01 15:58:26;;;;;;;;;;;13.70;99.90;;;;;;6233862;23;19915;-92
2023/04/01 16:07:06;;;;;;;;;;;;;;;;;;6199429;23;19951;-91
2023/04/01 16:09:59;;;;;;;;;;;13.20;99.90;;;;;;6221664;23;19904;-91
2023/04/01 16:12:34;;;;;;;;;;;13.20;99.90;;;;;;6158366;23;19951;-93
2023/04/01 16:15:18;;;;;;;;;;;13.10;99.90;;;;;;6141367;23;19991;-93
2023/04/01 16:17:55;;;;;;;;;;;13.10;99.90;;;;;;6144256;23;20249;-92
2023/04/01 16:20:48;;;;;;;;;;;13.20;99.90;;;;;;6140153;23;20320;-95
2023/04/01 16:23:38;;;;;;;;;;;13.00;99.90;;;;;;6165191;23;19908;-94
2023/04/01 16:26:18;;;;;;;;;;;13.10;99.90;;;;;;6153292;23;19912;-91
2023/04/01 16:28:55;;;;;;;;;;;13.10;99.90;;;;;;6127586;23;19954;-93
2023/04/01 16:31:45;;;;;;;;;;;13.10;99.90;;;;;;6148782;23;19939;-91
2023/04/01 16:34:16;;;;;;;;;;;12.90;99.90;;;;;;6098020;23;20013;-91
2023/04/01 16:36:42;;;;;;;;;;;;;;;;;;6122762;23;20284;-90
2023/04/01 16:39:16;;;;;;;;;;;13.00;99.90;;;;;;6148444;23;19909;-90
2023/04/01 16:42:08;;;;;;;;;;;13.00;99.90;;;;;;6124222;23;20003;-90
2023/04/01 16:44:52;;;;;;;;;;;12.90;99.90;;;;;;6161810;23;19939;-93
2023/04/01 16:47:31;;;;;;;;;;;12.80;99.90;;;;;;6211838;23;19904;-91
2023/04/01 16:50:11;;;;;;;;;;;12.80;99.90;;;;;;6226190;23;19904;-90
2023/04/01 16:55:52;;;;;;;;;;;12.80;99.90;;;;;;6155145;23;19970;-92
2023/04/01 16:58:33;;;;;;;;;;;12.80;99.90;;;;;;6186857;23;19912;-93
2023/04/01 17:01:05;;;;;;;;;;;12.70;99.90;;;;;;6189707;23;19907;-93
2023/04/01 17:04:08;;;;;;;;;;;13.10;99.90;;;;;;6210970;23;19908;-93
2023/04/01 17:06:49;;;;;;;;;;;13.80;99.90;;;;;;6182334;23;19904;-91
2023/04/01 17:09:23;;;;;;;;;;;14.20;99.90;;;;;;6211210;23;19935;-94
2023/04/01 17:11:52;;;;;;;;;;;;;;;;;;6210782;23;19919;-92
2023/04/01 17:14:31;;;;;;;;;;;14.70;99.90;;;;;;6210703;23;19904;-90
2023/04/01 17:17:43;;;;;;;;;;;14.50;99.90;;;;;;6210351;23;19915;-95
2023/04/01 17:20:12;;;;;;;;;;;14.30;99.90;;;;;;6192713;23;19908;-94
2023/04/01 17:22:52;;;;;;;;;;;14.20;99.90;;;;;;6222491;23;19912;-93
2023/04/01 17:25:58;;;;;;;;;;;14.70;99.90;;;;;;6220727;23;19904;-94
2023/04/01 17:37:17;;;;;;;;;;;;;;;;;;;;;
2023/04/01 17:39:24;;;;;;;;;;;;;;;;;;;;;
2023/04/01 17:45:31;;;;;;;;;;;14.10;99.90;;;;;;6198533;23;19907;-93
2023/04/01 17:47:58;;;;;;;;;;;14.00;99.90;;;;;;6220363;23;19991;-91
2023/04/01 17:57:19;;;;;;;;;;;13.40;99.90;;;;;;6200357;23;19927;-94
2023/04/01 18:02:54;;;;;;;;;;;12.50;99.90;;;;;;6180596;23;19915;-93
2023/04/01 18:05:44;;;;;;;;;;;12.40;99.90;;;;;;6242688;23;19912;-94
2023/04/01 18:08:22;;;;;;;;;;;12.30;99.90;;;;;;6209529;23;20288;-92
2023/04/01 18:21:52;;;;;;;;;;;12.10;99.90;;;;;;6190245;23;19922;-94
2023/04/01 18:24:45;;;;;;;;;;;11.90;99.90;;;;;;6247436;23;19911;-93